Terminal Aerodrome Forecast
Issued by NWS St Louis, MO

Home | Current Version | Previous Version | Text Only | Print | Product List | Glossary On
Versions: 1 2 3 4 5 6 7 8 9 10 11 12 13 14 15 16 17 18
000
FTUS43 KLSX 010500
TAFCOU
TAF
KCOU 010520Z 0106/0206 12009KT 6SM -RA OVC040
     FM010800 12009KT 4SM -RA SCT007 OVC024
      TEMPO 0108/0112 1SM -SN BR
     FM011900 30013G23KT 3SM -RA OVC007
     FM012200 34013G23KT 2SM -SN OVC007
     FM020300 34014KT P6SM SCT007 OVC012=

USA.gov is the U.S. government's official web portal to all federal, state and local government web resources and services.